Time;durP1;ratioP1;P1;durP2;ratioP2;P2;SDS_P1;SDS_P2;PMS_P1;PMS_P2;Temp;Humidity;BMP_temperature;BMP_pressure;BME280_temperature;BME280_humidity;BME280_pressure;Samples;Min_cycle;Max_cycle;Signal;HPM_P1;HPM_P2
2022/02/06 00:01:20;;;;;;;9.70;5.28;;;;;;;1.13;69.74;98977.34;1712754;83;20922;-40
2022/02/06 00:03:48;;;;;;;10.58;5.05;;;;;;;1.12;69.77;98968.55;1712745;83;21318;-40
2022/02/06 00:06:15;;;;;;;10.23;5.25;;;;;;;1.14;69.89;98972.25;1712926;83;21014;-39
2022/02/06 00:08:41;;;;;;;8.13;4.58;;;;;;;1.13;69.92;98984.81;1712753;83;21052;-40
2022/02/06 00:11:08;;;;;;;10.13;5.10;;;;;;;1.16;69.92;98981.52;1712536;83;21157;-40
2022/02/06 00:13:34;;;;;;;10.78;5.03;;;;;;;1.17;69.87;98980.42;1712671;83;21073;-39
2022/02/06 00:16:02;;;;;;;8.38;4.75;;;;;;;1.20;69.92;98967.03;1712613;83;21042;-40
2022/02/06 00:18:28;;;;;;;10.58;5.00;;;;;;;1.24;69.89;98972.78;1712769;83;21100;-40
2022/02/06 00:20:59;;;;;;;8.73;4.67;;;;;;;1.25;69.87;98965.02;1712891;83;20982;-39
2022/02/06 00:23:26;;;;;;;8.18;4.40;;;;;;;1.27;69.92;98970.03;1712558;83;21108;-39
2022/02/06 00:26:15;;;;;;;9.83;4.90;;;;;;;1.28;69.98;98967.61;1712747;83;20933;-40
2022/02/06 00:29:23;;;;;;;11.43;5.80;;;;;;;1.29;70.02;98967.85;1710884;83;21042;-39
2022/02/06 00:31:33;;;;;;;9.23;4.70;;;;;;;1.30;70.11;98966.22;1710129;83;21012;-39
2022/02/06 00:39:15;;;;;;;11.33;4.95;;;;;;;1.30;70.33;98967.55;1756575;81;21012;-39
2022/02/06 00:41:42;;;;;;;13.20;5.10;;;;;;;1.29;70.34;98963.30;1756594;81;21531;-40
2022/02/06 00:44:10;;;;;;;11.08;5.25;;;;;;;1.31;70.37;98965.64;1720520;82;21056;-40
2022/02/06 00:46:39;;;;;;;10.10;4.87;;;;;;;1.30;70.37;98962.21;1702817;84;21022;-39
2022/02/06 00:49:23;;;;;;;9.93;4.85;;;;;;;1.31;70.37;98963.77;1702506;84;21109;-40
2022/02/06 00:54:13;;;;;;;13.08;5.25;;;;;;;1.31;70.48;98965.09;1702547;84;21010;-40
2022/02/06 00:56:41;;;;;;;8.83;4.35;;;;;;;1.31;70.60;98965.09;1702709;84;20982;-40
2022/02/06 00:59:08;;;;;;;7.40;4.25;;;;;;;1.33;70.67;98966.14;1702539;84;21085;-39
2022/02/06 01:01:36;;;;;;;8.33;4.72;;;;;;;1.31;70.80;98962.43;1702502;84;21863;-39
2022/02/06 01:04:04;;;;;;;8.48;5.05;;;;;;;1.30;70.85;98963.55;1702241;84;20978;-40
2022/02/06 01:06:31;;;;;;;8.98;4.60;;;;;;;1.30;70.94;98957.41;1702898;84;20985;-40
2022/02/06 01:08:58;;;;;;;9.88;4.80;;;;;;;1.30;70.95;98953.41;1702208;84;21085;-40
2022/02/06 01:11:24;;;;;;;9.03;4.97;;;;;;;1.30;71.06;98957.41;1702848;84;21073;-40
2022/02/06 01:14:02;;;;;;;11.28;5.05;;;;;;;1.30;71.10;98960.88;1702422;84;21517;-40
2022/02/06 01:16:27;;;;;;;7.22;4.30;;;;;;;1.33;71.10;98960.80;1700741;84;21571;-40
2022/02/06 01:19:00;;;;;;;11.75;4.97;;;;;;;1.36;71.07;98961.50;1701636;84;21257;-40
2022/02/06 01:21:34;;;;;;;9.15;4.70;;;;;;;1.37;71.03;98958.29;1701161;84;21062;-39
2022/02/06 01:24:03;;;;;;;6.72;4.55;;;;;;;1.39;70.99;98957.44;1700079;84;21023;-40
2022/02/06 01:26:39;;;;;;;11.57;4.95;;;;;;;1.41;70.99;98959.24;1700515;84;21224;-40
2022/02/06 01:29:03;;;;;;;9.95;4.70;;;;;;;1.40;70.96;98962.48;1720805;82;20949;-40
2022/02/06 01:34:01;;;;;;;8.85;4.70;;;;;;;1.43;70.97;98970.42;1715201;83;21080;-39
2022/02/06 01:36:37;;;;;;;7.12;4.65;;;;;;;1.44;70.94;98976.00;1715406;83;21514;-40
2022/02/06 01:39:13;;;;;;;9.58;3.77;;;;;;;1.43;71.01;98969.08;1714872;83;21133;-40
2022/02/06 01:41:36;;;;;;;10.40;4.95;;;;;;;1.44;70.98;98972.79;1714589;83;21014;-40
2022/02/06 01:44:05;;;;;;;11.63;4.92;;;;;;;1.44;71.02;98971.45;1714832;83;21068;-40
2022/02/06 02:08:27;;;;;;;7.20;4.65;;;;;;;1.26;71.72;98969.78;1683070;82;20968;-40
2022/02/06 02:21:55;;;;;;;10.18;5.33;;;;;;;1.23;71.93;98973.87;1751273;82;21057;-40
2022/02/06 02:47:51;;;;;;;9.85;5.83;;;;;;;1.12;72.17;98987.23;1756608;81;21013;-39
2022/02/06 02:50:23;;;;;;;9.98;5.45;;;;;;;1.10;72.26;98989.44;1756392;81;21096;-40
2022/02/06 02:56:03;;;;;;;12.23;6.80;;;;;;;1.09;72.26;98990.52;1720627;82;21847;-39
2022/02/06 02:58:44;;;;;;;10.38;5.72;;;;;;;1.08;72.36;98990.82;1701229;84;21028;-40
2022/02/06 03:03:38;;;;;;;6.90;4.60;;;;;;;1.06;72.36;98983.68;1702548;84;20907;-39
2022/02/06 03:06:05;;;;;;;10.72;6.33;;;;;;;1.02;72.45;98984.81;1702331;84;21564;-40
2022/02/06 03:08:34;;;;;;;12.37;6.20;;;;;;;1.02;72.44;98987.48;1702972;84;21030;-40
2022/02/06 03:11:06;;;;;;;11.20;5.60;;;;;;;1.02;72.44;98988.03;1702130;84;21132;-40
2022/02/06 03:14:17;;;;;;;9.83;6.20;;;;;;;0.99;72.50;98992.11;1702131;84;21050;-40
2022/02/06 03:16:17;;;;;;;9.58;5.90;;;;;;;0.99;72.62;98993.98;1687698;84;21021;-40
2022/02/06 03:18:43;;;;;;;10.63;5.72;;;;;;;0.99;72.69;98997.45;1700590;84;21022;-39
2022/02/06 03:21:03;;;;;;;12.80;6.78;;;;;;;0.99;72.71;98992.66;1700929;84;21026;-40
2022/02/06 03:23:36;;;;;;;10.43;5.40;;;;;;;1.01;72.72;98994.48;1702453;84;21501;-40
2022/02/06 03:25:58;;;;;;;10.30;5.22;;;;;;;1.04;72.73;98993.32;1701355;84;21532;-40
2022/02/06 03:28:24;;;;;;;8.03;5.45;;;;;;;1.05;72.68;98994.11;1702583;84;21029;-40
2022/02/06 03:30:52;;;;;;;7.85;5.40;;;;;;;1.07;72.66;98994.58;1702256;84;21568;-39
2022/02/06 03:33:19;;;;;;;8.28;5.70;;;;;;;1.06;72.64;98990.36;1701024;84;21509;-40
2022/02/06 03:35:47;;;;;;;10.70;6.05;;;;;;;1.07;72.69;98991.36;1699387;84;21575;-40
2022/02/06 03:38:13;;;;;;;8.68;5.60;;;;;;;1.08;72.65;98988.94;1699319;84;21049;-40
2022/02/06 03:40:47;;;;;;;11.28;5.80;;;;;;;1.11;72.62;98988.89;1699227;84;21030;-39
2022/02/06 03:43:17;;;;;;;10.20;5.80;;;;;;;1.11;72.54;98988.34;1698141;84;21700;-39
2022/02/06 03:45:56;;;;;;;10.13;5.75;;;;;;;1.11;72.51;98994.23;1689957;84;21088;-40
2022/02/06 03:48:19;;;;;;;10.85;6.47;;;;;;;1.09;72.56;98995.86;1699327;84;21894;-40
2022/02/06 03:50:48;;;;;;;9.95;5.72;;;;;;;1.08;72.62;98998.28;1700130;84;20986;-40
2022/02/06 03:53:12;;;;;;;14.55;5.95;;;;;;;1.08;72.64;98996.16;1700107;84;20982;-40
2022/02/06 03:55:39;;;;;;;10.63;6.42;;;;;;;1.07;72.66;98992.70;1700630;84;21035;-40
2022/02/06 03:58:06;;;;;;;10.23;6.03;;;;;;;1.07;72.67;99001.25;1700815;84;21090;-40
2022/02/06 04:00:33;;;;;;;9.75;6.12;;;;;;;1.05;72.63;99000.24;1711162;82;21168;-40
2022/02/06 04:03:00;;;;;;;13.22;6.58;;;;;;;1.04;72.71;98995.98;1715143;83;21008;-40
2022/02/06 04:05:27;;;;;;;12.78;5.72;;;;;;;1.06;72.66;98994.36;1728089;80;21045;-39
2022/02/06 04:07:54;;;;;;;14.70;6.47;;;;;;;1.04;72.67;98990.66;1751188;82;21539;-39
2022/02/06 04:10:20;;;;;;;12.33;5.85;;;;;;;1.04;72.68;98996.53;1715455;83;21084;-39
2022/02/06 04:12:49;;;;;;;11.00;6.22;;;;;;;1.03;72.72;99000.28;1715273;83;21144;-40
2022/02/06 04:15:36;;;;;;;11.53;6.33;;;;;;;1.01;72.71;98997.95;1751161;81;21271;-40
2022/02/06 04:18:05;;;;;;;11.88;6.53;;;;;;;1.03;72.78;98996.28;1747894;81;21053;-39
2022/02/06 04:20:18;;;;;;;11.50;6.83;;;;;;;1.02;72.73;98998.16;1749279;81;21535;-40
2022/02/06 04:22:46;;;;;;;10.30;6.90;;;;;;;1.03;72.74;98994.41;1715301;83;21091;-39
2022/02/06 04:25:13;;;;;;;11.38;6.85;;;;;;;1.03;72.75;99002.95;1751153;81;21094;-40
2022/02/06 04:27:39;;;;;;;12.13;6.08;;;;;;;1.02;72.83;99002.16;1751412;81;21005;-40
2022/02/06 04:30:09;;;;;;;10.82;6.33;;;;;;;1.01;72.86;99008.63;1751298;80;21048;-40
2022/02/06 04:32:36;;;;;;;15.13;6.37;;;;;;;1.01;72.93;99003.83;1751197;81;21041;-40
2022/02/06 04:35:03;;;;;;;11.48;6.40;;;;;;;1.03;72.90;99000.28;1707599;83;21044;-40
2022/02/06 04:37:49;;;;;;;10.70;6.15;;;;;;;1.04;72.84;99004.54;1707585;84;21049;-40
2022/02/06 04:40:20;;;;;;;12.03;7.15;;;;;;;1.05;72.79;99002.91;1707556;83;21554;-39
2022/02/06 05:14:32;;;;;;;10.50;8.00;;;;;;;1.15;72.54;99023.22;1707468;84;21028;-40
2022/02/06 05:17:14;;;;;;;11.28;7.45;;;;;;;1.14;72.49;99022.44;1705473;83;21955;-40
2022/02/06 05:30:11;;;;;;;10.50;7.92;;;;;;;1.11;72.76;99020.38;1707670;84;21143;-39
2022/02/06 05:32:57;;;;;;;11.00;7.25;;;;;;;1.12;72.82;99026.48;1706810;84;21434;-40
2022/02/06 05:35:07;;;;;;;11.53;6.92;;;;;;;1.13;72.80;99029.41;1704380;84;21067;-39
2022/02/06 05:37:34;;;;;;;12.18;7.53;;;;;;;1.14;72.75;99032.32;1707460;84;21021;-39
2022/02/06 05:40:00;;;;;;;15.63;8.05;;;;;;;1.14;72.72;99033.11;1737358;82;20998;-39
2022/02/06 05:42:27;;;;;;;14.95;8.63;;;;;;;1.14;72.72;99030.98;1743304;81;21139;-39
2022/02/06 05:44:55;;;;;;;12.00;7.20;;;;;;;1.14;72.68;99033.11;1743557;81;21014;-40
2022/02/06 05:47:24;;;;;;;11.90;8.00;;;;;;;1.15;72.70;99032.56;1743506;82;21508;-39
2022/02/06 05:49:52;;;;;;;10.78;7.53;;;;;;;1.13;72.71;99032.86;1743214;81;20922;-40
2022/02/06 05:52:19;;;;;;;13.25;8.10;;;;;;;1.12;72.72;99037.16;1743349;81;21465;-40
2022/02/06 05:54:46;;;;;;;12.45;8.10;;;;;;;1.14;72.73;99044.33;1743222;81;21132;-40
2022/02/06 05:57:13;;;;;;;12.75;8.28;;;;;;;1.15;72.68;99034.69;1743115;82;21448;-40
2022/02/06 05:59:40;;;;;;;12.47;7.95;;;;;;;1.16;72.63;99032.24;1743168;82;20969;-40
2022/02/06 06:02:06;;;;;;;13.95;7.92;;;;;;;1.17;72.63;99027.70;1743180;82;21127;-39
2022/02/06 06:04:33;;;;;;;10.18;6.95;;;;;;;1.18;72.53;99027.40;1743333;82;21017;-40
2022/02/06 06:06:59;;;;;;;14.78;8.00;;;;;;;1.21;72.49;99026.77;1748881;82;21713;-39
2022/02/06 06:09:26;;;;;;;12.07;6.80;;;;;;;1.23;72.44;99027.81;1744234;82;21005;-40
2022/02/06 06:11:52;;;;;;;12.35;7.72;;;;;;;1.23;72.36;99030.48;1707603;83;20965;-40
2022/02/06 06:14:19;;;;;;;11.50;7.55;;;;;;;1.23;72.32;99034.49;1743254;82;21399;-40
2022/02/06 06:16:45;;;;;;;11.95;7.75;;;;;;;1.26;72.33;99034.66;1707430;83;21079;-39
2022/02/06 06:19:14;;;;;;;13.40;7.65;;;;;;;1.30;72.18;99033.52;1700098;82;21500;-40
2022/02/06 06:21:43;;;;;;;13.05;7.37;;;;;;;1.34;72.08;99039.83;1743232;82;20957;-40
2022/02/06 06:24:08;;;;;;;15.18;7.95;;;;;;;1.34;71.98;99035.03;1707410;83;21088;-40
2022/02/06 06:26:39;;;;;;;14.30;7.33;;;;;;;1.36;71.93;99034.95;1743240;82;21065;-40
2022/02/06 06:29:06;;;;;;;14.38;8.05;;;;;;;1.39;71.79;99045.58;1707674;84;21044;-39
2022/02/06 06:31:34;;;;;;;13.90;7.22;;;;;;;1.39;71.75;99049.59;1743327;81;20946;-40
2022/02/06 06:34:00;;;;;;;14.60;7.65;;;;;;;1.38;71.72;99042.66;1707497;83;21042;-40
2022/02/06 06:36:30;;;;;;;13.20;7.55;;;;;;;1.39;71.73;99039.70;1707440;84;21476;-40
2022/02/06 06:38:56;;;;;;;14.80;7.75;;;;;;;1.39;71.70;99047.70;1743048;81;21026;-40
2022/02/06 06:41:22;;;;;;;16.37;8.33;;;;;;;1.41;71.64;99048.72;1743176;82;21603;-40
2022/02/06 06:43:49;;;;;;;14.98;8.10;;;;;;;1.41;71.55;99053.52;1707532;83;21121;-40
2022/02/06 06:46:15;;;;;;;18.10;8.88;;;;;;;1.41;71.59;99047.38;1743160;81;21547;-40
2022/02/06 06:48:42;;;;;;;11.70;6.78;;;;;;;1.41;71.50;99046.84;1707463;84;20992;-40
2022/02/06 06:51:09;;;;;;;12.37;7.05;;;;;;;1.39;71.48;99042.91;1707438;84;21112;-40
2022/02/06 06:53:40;;;;;;;11.38;7.20;;;;;;;1.40;71.53;99051.17;1743262;81;21084;-40
2022/02/06 06:56:14;;;;;;;10.88;6.45;;;;;;;1.44;71.49;99053.47;1707337;82;20989;-40
2022/02/06 06:58:42;;;;;;;13.48;7.12;;;;;;;1.46;71.42;99048.59;1658596;85;21016;-40
2022/02/06 07:03:32;;;;;;;12.73;6.40;;;;;;;1.49;71.15;99052.79;1678933;85;21066;-39
2022/02/06 07:05:59;;;;;;;11.75;6.65;;;;;;;1.51;71.15;99039.90;1678833;85;20985;-40
2022/02/06 07:08:26;;;;;;;12.33;6.80;;;;;;;1.54;71.00;99045.19;1689675;84;21189;-40
2022/02/06 07:10:53;;;;;;;13.48;6.45;;;;;;;1.56;70.90;99038.97;1707107;84;20917;-40
2022/02/06 07:13:21;;;;;;;11.50;6.80;;;;;;;1.59;70.80;99035.70;1707404;84;21036;-40
2022/02/06 07:15:50;;;;;;;12.40;6.97;;;;;;;1.61;70.77;99040.17;1707302;84;20968;-40
2022/02/06 07:18:16;;;;;;;11.08;6.58;;;;;;;1.65;70.68;99039.25;1707659;84;21089;-39
2022/02/06 07:20:43;;;;;;;11.08;6.20;;;;;;;1.69;70.57;99040.78;1707493;84;21199;-39
2022/02/06 07:23:11;;;;;;;10.40;5.53;;;;;;;1.72;70.39;99049.50;1743070;80;21504;-39
2022/02/06 07:25:40;;;;;;;10.72;6.12;;;;;;;1.76;70.36;99046.45;1743110;82;21523;-39
2022/02/06 07:28:14;;;;;;;13.65;6.40;;;;;;;1.80;70.07;99040.72;1707333;84;21028;-40
2022/02/06 07:30:35;;;;;;;11.68;5.97;;;;;;;1.83;69.93;99044.12;1743863;81;21113;-39
2022/02/06 07:33:02;;;;;;;14.93;5.78;;;;;;;1.87;69.84;99049.09;1707345;84;21143;-39
2022/02/06 07:35:29;;;;;;;12.88;6.08;;;;;;;1.92;69.67;99044.95;1713640;83;20980;-40
2022/02/06 07:37:56;;;;;;;11.68;5.92;;;;;;;1.95;69.48;99045.65;1714994;83;20969;-39
2022/02/06 07:40:23;;;;;;;12.53;6.28;;;;;;;2.01;69.27;99044.42;1714953;83;21014;-39
2022/02/06 07:42:49;;;;;;;10.72;6.17;;;;;;;2.04;68.87;99038.44;1715014;83;21491;-39
2022/02/06 07:45:19;;;;;;;14.43;7.00;;;;;;;2.09;68.93;99047.66;1715006;83;21949;-39
2022/02/06 07:49:37;;;;;;;12.40;7.30;;;;;;;2.22;68.49;99041.17;1795870;79;22665;-40
2022/02/06 07:52:05;;;;;;;14.90;6.90;;;;;;;2.16;68.52;99043.98;1757062;80;21574;-39
2022/02/06 07:54:32;;;;;;;13.28;7.33;;;;;;;2.19;68.25;99047.37;1749721;80;21781;-39
2022/02/06 07:56:58;;;;;;;15.10;6.58;;;;;;;2.21;68.17;99045.73;1726608;83;20972;-39
2022/02/06 07:59:25;;;;;;;13.43;6.80;;;;;;;2.19;68.13;99052.72;1726940;82;20949;-39
2022/02/06 08:01:52;;;;;;;12.90;6.62;;;;;;;2.19;68.18;99049.25;1726890;82;21621;-39
2022/02/06 08:04:19;;;;;;;11.25;5.53;;;;;;;2.20;68.24;99053.50;1726812;82;20969;-39
2022/02/06 08:06:45;;;;;;;10.98;5.87;;;;;;;2.20;68.35;99056.18;1726923;82;21959;-39
2022/02/06 08:09:13;;;;;;;10.63;6.35;;;;;;;2.19;68.37;99047.37;1752181;81;20972;-39
2022/02/06 08:11:46;;;;;;;11.88;6.42;;;;;;;2.16;68.22;99056.02;1756929;81;20985;-39
2022/02/06 08:14:09;;;;;;;10.25;5.37;;;;;;;2.14;68.31;99050.19;1756614;81;21056;-40
2022/02/06 08:16:35;;;;;;;14.15;6.65;;;;;;;2.11;68.33;99052.16;1756966;81;21759;-39
2022/02/06 08:19:02;;;;;;;11.70;6.03;;;;;;;2.12;68.44;99052.40;1756929;81;21139;-39
2022/02/06 08:21:29;;;;;;;9.08;6.00;;;;;;;2.15;68.47;99046.42;1756905;81;21032;-39
2022/02/06 08:23:55;;;;;;;11.57;6.20;;;;;;;2.22;68.33;99045.18;1756917;81;21034;-39
2022/02/06 08:26:25;;;;;;;9.90;5.97;;;;;;;2.29;68.07;99037.47;1757006;81;21578;-39
2022/02/06 08:28:52;;;;;;;15.48;6.03;;;;;;;2.32;67.71;99036.31;1756800;81;21290;-39
2022/02/06 08:31:18;;;;;;;10.08;5.80;;;;;;;2.36;67.61;99032.45;1756864;81;21130;-39
2022/02/06 08:33:45;;;;;;;9.78;5.75;;;;;;;2.41;67.30;99026.95;1757019;81;21496;-40
2022/02/06 08:36:11;;;;;;;10.03;6.00;;;;;;;2.46;67.09;99034.83;1756877;81;21014;-39
2022/02/06 08:38:39;;;;;;;11.00;5.60;;;;;;;2.52;67.06;99044.26;1757042;81;20989;-40
2022/02/06 08:41:05;;;;;;;11.70;5.67;;;;;;;2.58;66.76;99030.97;1757008;81;21195;-39
2022/02/06 08:43:32;;;;;;;12.55;5.72;;;;;;;2.61;66.43;99039.15;1754424;81;21159;-39
2022/02/06 08:45:58;;;;;;;11.45;5.58;;;;;;;2.63;66.25;99045.53;1726800;83;20968;-39
2022/02/06 08:48:25;;;;;;;12.45;5.95;;;;;;;2.64;65.78;99040.42;1726993;82;21550;-39
2022/02/06 08:50:51;;;;;;;12.50;6.00;;;;;;;2.64;65.92;99032.39;1727066;83;21100;-39
2022/02/06 08:53:18;;;;;;;12.35;5.97;;;;;;;2.67;65.70;99037.66;1727128;83;21088;-39
2022/02/06 08:55:48;;;;;;;12.95;5.72;;;;;;;2.62;65.74;99034.03;1749616;81;21096;-39
2022/02/06 08:58:13;;;;;;;9.38;5.75;;;;;;;2.61;65.35;99038.39;1756932;81;20997;-39
2022/02/06 09:00:40;;;;;;;8.20;5.28;;;;;;;2.58;65.24;99032.30;1756964;81;21024;-39
2022/02/06 09:03:06;;;;;;;12.63;5.53;;;;;;;2.57;65.25;99039.55;1756690;81;21032;-39
2022/02/06 09:05:34;;;;;;;11.03;4.70;;;;;;;2.59;65.22;99039.23;1756776;81;20945;-39
2022/02/06 09:08:02;;;;;;;11.43;5.15;;;;;;;2.62;65.12;99030.57;1756535;81;21124;-39
2022/02/06 09:10:30;;;;;;;11.20;5.00;;;;;;;2.63;64.92;99020.11;1756650;81;20996;-39
2022/02/06 09:12:56;;;;;;;11.40;5.10;;;;;;;2.66;64.83;99011.47;1756681;81;20981;-40
2022/02/06 09:15:25;;;;;;;9.70;5.08;;;;;;;2.70;64.64;99004.92;1756744;81;20998;-39
2022/02/06 09:17:52;;;;;;;12.50;5.42;;;;;;;2.73;64.42;99015.78;1756515;81;21056;-39
2022/02/06 09:20:19;;;;;;;11.40;4.80;;;;;;;2.77;64.12;99015.38;1756616;81;21943;-39
2022/02/06 09:22:46;;;;;;;9.78;5.33;;;;;;;2.79;64.14;99001.14;1756643;81;20977;-39
2022/02/06 09:25:13;;;;;;;10.80;5.08;;;;;;;2.84;64.06;99003.66;1756707;81;20981;-40
2022/02/06 09:27:41;;;;;;;7.30;4.15;;;;;;;2.86;63.75;98998.75;1756533;81;20965;-39
2022/02/06 09:30:17;;;;;;;10.03;4.47;;;;;;;2.91;63.53;99005.83;1756726;81;21033;-39
2022/02/06 09:35:11;;;;;;;8.38;4.95;;;;;;;3.01;63.07;98994.24;1727178;81;21590;-39
2022/02/06 09:37:37;;;;;;;7.17;4.10;;;;;;;3.08;62.65;98982.27;1726458;83;21507;-39
2022/02/06 09:40:10;;;;;;;9.75;4.85;;;;;;;3.15;62.38;98995.97;1726450;82;20988;-39
2022/02/06 09:42:37;;;;;;;7.05;4.05;;;;;;;3.17;62.14;98989.72;1726632;83;21539;-40
2022/02/06 09:45:06;;;;;;;8.25;4.45;;;;;;;3.31;61.99;98992.98;1726513;83;21575;-39
2022/02/06 09:47:34;;;;;;;9.93;4.40;;;;;;;3.43;61.26;98991.78;1737539;81;21008;-39
2022/02/06 09:50:01;;;;;;;7.95;4.37;;;;;;;3.52;60.54;98994.42;1744776;81;20958;-39
2022/02/06 09:52:28;;;;;;;9.58;4.80;;;;;;;3.62;60.33;98988.16;1743326;81;20954;-40
2022/02/06 09:54:58;;;;;;;8.78;4.17;;;;;;;3.76;60.02;98991.41;1743149;82;21013;-40
2022/02/06 09:57:28;;;;;;;8.40;4.27;;;;;;;3.94;59.33;98980.80;1743500;82;21120;-40
2022/02/06 09:59:54;;;;;;;7.53;3.87;;;;;;;4.13;58.46;98975.56;1743323;82;21021;-40
2022/02/06 10:02:30;;;;;;;10.05;4.50;;;;;;;4.27;58.09;98966.14;1743336;82;20993;-39
2022/02/06 10:04:58;;;;;;;9.58;4.30;;;;;;;4.40;57.47;98960.86;1743213;81;21472;-40
2022/02/06 10:07:38;;;;;;;12.37;4.95;;;;;;;4.53;57.02;98961.92;1743414;81;21026;-40
2022/02/06 10:10:09;;;;;;;9.73;4.47;;;;;;;4.63;56.53;98968.23;1743271;81;21806;-40
2022/02/06 10:12:43;;;;;;;9.38;4.62;;;;;;;4.71;56.37;98949.13;1707465;83;21009;-40
2022/02/06 10:15:16;;;;;;;8.65;3.80;;;;;;;4.78;56.19;98929.24;1707481;84;20969;-39
2022/02/06 10:17:44;;;;;;;9.95;4.20;;;;;;;4.82;56.10;98948.95;1707190;83;20977;-40
2022/02/06 10:20:17;;;;;;;9.88;4.60;;;;;;;4.84;56.27;98939.22;1707671;84;21041;-40
2022/02/06 10:22:57;;;;;;;9.20;4.85;;;;;;;4.95;55.94;98943.04;1700073;83;21862;-40
2022/02/06 10:25:18;;;;;;;9.70;4.50;;;;;;;5.11;55.72;98943.42;1677898;85;21011;-40
2022/02/06 10:28:11;;;;;;;9.05;4.80;;;;;;;5.33;55.33;98943.55;1713716;83;21476;-40
2022/02/06 10:30:46;;;;;;;12.65;5.12;;;;;;;5.54;54.39;98936.74;1713179;82;20994;-40
2022/02/06 10:33:16;;;;;;;10.80;4.95;;;;;;;5.72;53.98;98931.91;1703390;83;21084;-40
2022/02/06 10:35:47;;;;;;;9.18;4.37;;;;;;;5.74;53.55;98937.75;1713928;82;21776;-40
2022/02/06 10:38:26;;;;;;;12.88;5.42;;;;;;;5.59;53.63;98933.27;1741547;82;21376;-40
2022/02/06 10:41:17;;;;;;;16.82;5.35;;;;;;;5.41;54.44;98937.31;1743645;81;21009;-40
2022/02/06 10:44:04;;;;;;;10.95;5.10;;;;;;;5.19;54.76;98934.47;1743278;81;21025;-40
2022/02/06 10:46:48;;;;;;;14.65;5.40;;;;;;;4.93;55.77;98938.02;1743606;82;21670;-40
2022/02/06 10:49:17;;;;;;;12.63;4.97;;;;;;;4.71;56.40;98935.70;1743292;81;21786;-40
2022/02/06 10:52:00;;;;;;;11.18;4.70;;;;;;;4.55;57.40;98931.49;1743249;81;21510;-40
2022/02/06 10:54:35;;;;;;;12.75;4.70;;;;;;;4.41;57.70;98930.98;1737064;81;20950;-39
2022/02/06 10:57:12;;;;;;;12.10;4.92;;;;;;;4.29;58.15;98929.05;1713750;83;22118;-40
2022/02/06 10:59:53;;;;;;;16.00;4.87;;;;;;;4.24;58.45;98917.72;1713765;83;21512;-40
2022/02/06 11:02:26;;;;;;;9.83;4.80;;;;;;;4.23;58.55;98929.56;1713682;82;21465;-40
2022/02/06 11:05:21;;;;;;;12.15;4.92;;;;;;;4.24;58.47;98925.22;1713409;83;20946;-40
2022/02/06 11:08:00;;;;;;;10.48;5.22;;;;;;;4.28;58.60;98918.63;1729381;82;20965;-41
2022/02/06 11:10:31;;;;;;;12.75;5.58;;;;;;;4.37;58.56;98922.81;1743082;81;20977;-41
2022/02/06 11:13:03;;;;;;;13.07;5.80;;;;;;;4.47;58.38;98914.91;1743898;82;21033;-41
2022/02/06 11:15:34;;;;;;;14.10;6.47;;;;;;;4.47;58.38;98914.91;1742045;81;21533;-41
2022/02/06 11:18:12;;;;;;;9.98;5.40;;;;;;;4.50;58.58;98914.28;1734777;82;20966;-41
2022/02/06 11:21:01;;;;;;;8.63;4.80;;;;;;;4.57;58.66;98915.06;1735018;82;20926;-41
2022/02/06 11:23:42;;;;;;;11.33;6.15;;;;;;;4.59;58.57;98905.58;1717497;82;21037;-41
2022/02/06 11:26:17;;;;;;;10.50;5.22;;;;;;;4.55;58.53;98903.30;1724611;82;21086;-41
2022/02/06 11:28:45;;;;;;;10.75;5.58;;;;;;;4.52;58.72;98902.63;1713756;82;21138;-41
2022/02/06 11:31:14;;;;;;;13.95;5.42;;;;;;;4.54;58.55;98896.39;1713597;83;21612;-41
2022/02/06 11:33:40;;;;;;;15.63;6.00;;;;;;;4.59;58.64;98889.48;1729883;82;21532;-41
2022/02/06 11:36:14;;;;;;;10.72;5.87;;;;;;;4.61;58.02;98894.48;1743278;82;20946;-41
2022/02/06 11:45:21;;;;;;;11.10;6.00;;;;;;;4.61;57.85;98891.80;1725033;82;21550;-40
2022/02/06 11:47:58;;;;;;;11.53;6.42;;;;;;;4.57;57.92;98893.59;1678881;85;20969;-41
2022/02/06 11:50:24;;;;;;;14.15;6.05;;;;;;;4.55;58.06;98886.44;1713573;82;21041;-41
2022/02/06 11:53:01;;;;;;;11.95;6.47;;;;;;;4.56;58.40;98891.45;1713493;83;21032;-41
2022/02/06 11:55:43;;;;;;;13.05;7.10;;;;;;;4.55;58.54;98890.47;1738026;81;21134;-41
2022/02/06 11:58:32;;;;;;;9.85;6.20;;;;;;;4.47;58.73;98885.39;1743150;81;20985;-41
2022/02/06 12:01:14;;;;;;;10.10;6.08;;;;;;;4.39;58.94;98891.63;1743068;82;20998;-41
2022/02/06 12:04:03;;;;;;;13.68;6.58;;;;;;;4.31;59.15;98883.08;1743289;81;21014;-40
2022/02/06 12:06:49;;;;;;;12.82;6.67;;;;;;;4.24;59.19;98881.50;1706711;83;21076;-41
2022/02/06 12:09:31;;;;;;;12.15;6.60;;;;;;;4.14;59.60;98878.66;1707322;84;21089;-41
2022/02/06 12:12:08;;;;;;;12.28;6.10;;;;;;;4.06;60.11;98873.37;1707272;84;21020;-41
2022/02/06 12:14:51;;;;;;;16.27;7.42;;;;;;;4.02;60.41;98879.17;1707519;84;20985;-41
2022/02/06 12:20:10;;;;;;;14.93;7.70;;;;;;;3.93;60.77;98879.22;1694113;84;20496;-41
2022/02/06 12:22:42;;;;;;;11.93;6.92;;;;;;;3.77;61.23;98877.70;1694071;84;21062;-41
2022/02/06 12:25:34;;;;;;;11.48;6.70;;;;;;;3.71;61.72;98865.58;1707250;84;21112;-41
2022/02/06 12:28:24;;;;;;;12.88;7.03;;;;;;;3.70;61.97;98874.73;1706876;84;21033;-41
2022/02/06 12:31:18;;;;;;;11.95;6.42;;;;;;;3.66;61.89;98873.81;1706941;84;21042;-40
2022/02/06 12:33:55;;;;;;;13.32;6.03;;;;;;;3.64;61.87;98869.32;1694500;84;21105;-41
2022/02/06 12:37:07;;;;;;;13.98;6.65;;;;;;;3.66;61.71;98869.01;1672949;85;21121;-41
2022/02/06 12:39:25;;;;;;;12.63;6.20;;;;;;;3.67;61.58;98872.71;1675079;85;21010;-40
2022/02/06 12:41:53;;;;;;;12.25;6.55;;;;;;;3.68;61.04;98858.17;1678714;85;20993;-41
2022/02/06 12:44:20;;;;;;;10.13;6.17;;;;;;;3.67;60.34;98864.67;1678866;85;21105;-41
2022/02/06 12:46:47;;;;;;;12.07;6.47;;;;;;;3.66;59.95;98859.08;1678062;84;21104;-40
2022/02/06 12:49:21;;;;;;;12.70;5.75;;;;;;;3.63;59.99;98862.97;1707968;83;21181;-41
2022/02/06 12:51:45;;;;;;;14.55;6.15;;;;;;;3.55;60.28;98855.75;1712591;83;21045;-40
2022/02/06 12:54:17;;;;;;;11.80;5.45;;;;;;;3.50;60.67;98848.69;1709692;83;21053;-40
2022/02/06 12:56:44;;;;;;;10.32;5.62;;;;;;;3.45;60.72;98851.00;1684117;85;21054;-41
2022/02/06 12:59:13;;;;;;;10.43;4.90;;;;;;;3.40;60.78;98853.86;1684224;85;21109;-41
2022/02/06 13:01:43;;;;;;;6.80;4.45;;;;;;;3.38;60.97;98848.61;1659116;85;21149;-41
2022/02/06 13:04:13;;;;;;;8.20;4.92;;;;;;;3.36;60.99;98856.17;1684218;85;21045;-41
2022/02/06 13:06:45;;;;;;;6.97;4.50;;;;;;;3.36;60.94;98858.86;1710179;83;21028;-41
2022/02/06 13:09:29;;;;;;;10.00;4.58;;;;;;;3.37;60.53;98848.38;1712931;83;20994;-40
2022/02/06 13:12:09;;;;;;;10.18;4.85;;;;;;;3.43;60.17;98845.75;1707931;83;21500;-40
2022/02/06 13:25:50;;;;;;;8.85;6.40;;;;;;;3.54;60.12;98836.20;1684305;85;21088;-40
2022/02/06 13:38:58;;;;;;;7.87;4.80;;;;;;;3.48;59.75;98829.48;1712851;83;21053;-41
2022/02/06 13:41:31;;;;;;;6.95;4.92;;;;;;;3.46;59.78;98820.97;1712637;83;21146;-41
2022/02/06 13:43:55;;;;;;;10.32;5.10;;;;;;;3.48;59.48;98821.44;1711160;83;21041;-40
2022/02/06 13:46:25;;;;;;;7.28;4.37;;;;;;;3.46;59.14;98812.93;1713008;83;21097;-40
2022/02/06 13:48:51;;;;;;;8.00;4.53;;;;;;;3.42;58.97;98812.02;1712823;83;21527;-41
2022/02/06 13:51:36;;;;;;;13.80;6.75;;;;;;;3.35;58.97;98818.43;1686632;83;21033;-40
2022/02/06 13:54:04;;;;;;;16.90;8.50;;;;;;;3.31;59.00;98808.14;1712440;83;21160;-40
2022/02/06 13:56:33;;;;;;;12.85;6.35;;;;;;;3.22;59.04;98812.22;1713011;83;21515;-41
2022/02/06 13:59:07;;;;;;;12.30;6.72;;;;;;;3.16;58.99;98808.14;1712833;83;21019;-41
2022/02/06 14:01:53;;;;;;;9.23;5.20;;;;;;;3.11;59.08;98820.37;1711948;83;21021;-40
2022/02/06 14:04:32;;;;;;;7.60;4.28;;;;;;;3.05;58.95;98815.76;1712104;83;21053;-40
2022/02/06 14:07:17;;;;;;;8.95;4.70;;;;;;;3.00;58.53;98823.97;1712667;83;21242;-40
2022/02/06 14:12:53;;;;;;;7.55;4.33;;;;;;;2.84;58.39;98819.49;1707387;83;21044;-41
2022/02/06 14:15:25;;;;;;;6.42;3.90;;;;;;;2.80;58.59;98816.68;1684667;84;21042;-41
2022/02/06 14:17:55;;;;;;;6.85;3.83;;;;;;;2.76;58.79;98814.97;1707431;84;21108;-41
2022/02/06 14:20:25;;;;;;;10.10;4.47;;;;;;;2.73;59.17;98812.36;1707331;83;22191;-40
2022/02/06 14:22:53;;;;;;;8.68;4.35;;;;;;;2.70;59.35;98803.65;1707080;83;21315;-41
2022/02/06 14:25:31;;;;;;;7.67;4.33;;;;;;;2.65;59.50;98813.19;1707314;84;21029;-40
2022/02/06 14:27:58;;;;;;;9.73;5.33;;;;;;;2.61;59.68;98810.92;1707322;84;21540;-40